createdAt,value
2023-05-05T00:00:15.804Z,56.26
2023-05-05T00:05:18.198Z,56.28
2023-05-05T00:10:20.380Z,56.47
2023-05-05T00:15:22.358Z,56.29
2023-05-05T00:20:24.380Z,56.31
2023-05-05T00:25:26.375Z,56.10
2023-05-05T00:30:28.463Z,56.15
2023-05-05T00:35:30.585Z,56.13
2023-05-05T00:40:32.913Z,55.99
2023-05-05T00:45:37.267Z,55.97
2023-05-05T00:50:39.884Z,56.04
2023-05-05T00:55:42.327Z,56.06
2023-05-05T01:00:44.810Z,56.19
2023-05-05T01:06:15.676Z,56.18
2023-05-05T01:11:29.827Z,56.13
2023-05-05T01:16:34.610Z,55.94
2023-05-05T01:21:42.848Z,56.17
2023-05-05T01:27:06.376Z,56.26
2023-05-05T01:32:11.061Z,55.98
2023-05-05T01:37:22.596Z,56.09
2023-05-05T01:42:27.246Z,55.92
2023-05-05T01:47:31.343Z,56.00
2023-05-05T01:52:36.245Z,56.07
2023-05-05T01:57:41.280Z,56.17
2023-05-05T02:02:46.842Z,55.87
2023-05-05T02:07:51.200Z,56.20
2023-05-05T02:12:54.144Z,56.08
2023-05-05T02:17:58.169Z,56.88
2023-05-05T02:23:00.536Z,56.40
2023-05-05T02:28:04.024Z,56.11
2023-05-05T02:33:13.502Z,56.12
2023-05-05T02:38:18.093Z,56.39
2023-05-05T02:43:26.113Z,56.20
2023-05-05T02:48:29.855Z,56.02
2023-05-05T02:53:36.299Z,56.25
2023-05-05T02:58:50.752Z,56.16
2023-05-05T03:04:11.746Z,56.49
2023-05-05T03:09:31.033Z,56.14
2023-05-05T03:14:42.130Z,56.30
2023-05-05T03:19:48.788Z,56.26
2023-05-05T03:24:51.777Z,56.36
2023-05-05T03:29:58.023Z,56.34
2023-05-05T03:35:01.495Z,56.09
2023-05-05T03:40:08.348Z,56.27
2023-05-05T03:45:10.998Z,56.26
2023-05-05T03:50:14.667Z,56.13
2023-05-05T03:55:17.274Z,56.08
2023-05-05T04:00:19.807Z,56.16
2023-05-05T04:05:23.186Z,56.27
2023-05-05T04:10:25.381Z,56.33
2023-05-05T04:15:27.621Z,56.28
2023-05-05T04:20:30.368Z,56.20
2023-05-05T04:25:32.869Z,56.13
2023-05-05T04:30:35.403Z,56.13
2023-05-05T04:35:37.698Z,56.21
2023-05-05T04:40:41.549Z,56.22
2023-05-05T04:45:55.417Z,56.13
2023-05-05T04:51:05.352Z,56.19
2023-05-05T04:56:08.186Z,56.28
2023-05-05T05:01:10.466Z,56.16
2023-05-05T05:06:14.244Z,56.06
2023-05-05T05:11:16.365Z,56.15
2023-05-05T05:16:18.584Z,56.33
2023-05-05T05:21:20.944Z,56.21
2023-05-05T05:26:23.578Z,56.04
2023-05-05T05:31:25.769Z,55.99
2023-05-05T05:36:28.295Z,56.13
2023-05-05T05:41:30.799Z,56.05
2023-05-05T05:46:33.006Z,56.01
2023-05-05T05:51:35.359Z,55.81
2023-05-05T05:56:37.823Z,56.10
2023-05-05T06:01:40.623Z,56.14
2023-05-05T06:06:43.439Z,56.17
2023-05-05T06:11:45.809Z,56.24
2023-05-05T06:16:47.921Z,55.62
2023-05-05T06:21:54.138Z,55.63
2023-05-05T06:26:56.607Z,55.88
2023-05-05T06:31:58.702Z,56.10
2023-05-05T06:37:00.768Z,56.26
2023-05-05T06:42:04.316Z,56.14
2023-05-05T06:47:06.299Z,55.76
2023-05-05T06:52:08.546Z,55.71
2023-05-05T06:57:10.605Z,56.26
2023-05-05T07:02:12.603Z,55.94
2023-05-05T07:07:14.520Z,56.04
2023-05-05T07:12:16.577Z,56.18
2023-05-05T07:17:18.645Z,56.32
2023-05-05T07:22:20.746Z,56.30
2023-05-05T07:27:23.090Z,56.31
2023-05-05T07:32:25.182Z,56.14
2023-05-05T07:37:27.202Z,56.22
2023-05-05T07:42:29.244Z,55.97
2023-05-05T07:47:31.302Z,56.13
2023-05-05T07:52:45.334Z,56.06
2023-05-05T07:57:50.232Z,56.09
2023-05-05T08:02:52.355Z,56.04
2023-05-05T08:07:54.412Z,55.93
2023-05-05T08:12:56.466Z,56.00
2023-05-05T08:17:58.601Z,56.13
2023-05-05T08:23:01.150Z,55.90
2023-05-05T08:28:03.649Z,56.02
2023-05-05T08:33:05.924Z,55.90
2023-05-05T08:38:08.269Z,55.93
2023-05-05T08:43:10.320Z,55.94
2023-05-05T08:48:15.904Z,56.06
2023-05-05T08:53:45.017Z,56.00
2023-05-05T08:58:48.508Z,56.02
2023-05-05T09:03:52.570Z,55.92
2023-05-05T09:08:55.641Z,56.03
2023-05-05T09:13:59.107Z,55.94
2023-05-05T09:19:02.874Z,56.04
2023-05-05T09:24:12.368Z,56.05
2023-05-05T09:29:21.227Z,56.05
2023-05-05T09:34:23.329Z,56.20
2023-05-05T09:39:25.432Z,56.13
2023-05-05T09:44:38.125Z,56.18
2023-05-05T09:49:40.353Z,56.11
2023-05-05T09:54:43.907Z,56.20
2023-05-05T09:59:59.218Z,56.11
2023-05-05T10:05:14.361Z,55.69
2023-05-05T10:10:18.204Z,55.81
2023-05-05T10:15:22.870Z,56.12
2023-05-05T10:20:26.311Z,56.29
2023-05-05T10:25:39.535Z,56.59
2023-05-05T10:30:46.513Z,56.43
2023-05-05T10:35:53.372Z,56.46
2023-05-05T10:40:56.656Z,56.37
2023-05-05T10:45:59.676Z,56.41
2023-05-05T10:51:07.581Z,56.38
2023-05-05T10:56:20.023Z,56.35
2023-05-05T11:01:31.489Z,56.20
2023-05-05T11:06:33.692Z,55.82
2023-05-05T11:12:08.958Z,55.95
2023-05-05T11:17:49.846Z,56.36
2023-05-05T11:23:13.455Z,56.29
2023-05-05T11:28:26.170Z,56.15
2023-05-05T11:33:32.143Z,56.22
2023-05-05T11:38:56.026Z,56.33
2023-05-05T11:44:10.978Z,56.64
2023-05-05T11:49:26.226Z,56.34
2023-05-05T11:54:28.784Z,56.50
2023-05-05T11:59:32.544Z,56.38
2023-05-05T12:04:39.950Z,56.46
2023-05-05T12:09:45.468Z,56.40
2023-05-05T12:14:53.034Z,56.32
2023-05-05T12:19:55.924Z,56.22
2023-05-05T12:24:59.149Z,56.20
2023-05-05T12:30:15.329Z,56.05
2023-05-05T12:35:17.532Z,56.22
2023-05-05T12:40:44.944Z,56.29
2023-05-05T12:45:47.303Z,56.51
2023-05-05T12:50:49.508Z,56.45
2023-05-05T12:55:52.118Z,56.39
2023-05-05T13:01:10.765Z,56.53
2023-05-05T13:06:20.966Z,56.35
2023-05-05T13:11:23.100Z,56.28
2023-05-05T13:16:25.384Z,56.59
2023-05-05T13:21:28.350Z,56.54
2023-05-05T13:26:30.459Z,56.39
2023-05-05T13:31:32.688Z,56.15
2023-05-05T13:36:35.140Z,56.36
2023-05-05T13:41:37.259Z,56.14
2023-05-05T13:46:39.426Z,56.23
2023-05-05T13:51:42.216Z,56.29
2023-05-05T13:56:44.703Z,56.17
2023-05-05T14:01:46.843Z,56.16
2023-05-05T14:06:49.010Z,56.21
2023-05-05T14:11:51.307Z,56.29
2023-05-05T14:16:53.703Z,56.51
2023-05-05T14:21:55.860Z,56.85
2023-05-05T14:26:57.965Z,56.58
2023-05-05T14:32:00.300Z,56.58
2023-05-05T14:37:02.710Z,56.67
2023-05-05T14:42:05.005Z,56.62
2023-05-05T14:47:07.217Z,56.66
2023-05-05T14:52:09.403Z,56.70
2023-05-05T14:57:11.523Z,56.86
2023-05-05T15:02:13.998Z,57.05
2023-05-05T15:07:16.137Z,57.29
2023-05-05T15:12:18.204Z,57.20
2023-05-05T15:17:20.442Z,57.13
2023-05-05T15:22:22.698Z,57.08
2023-05-05T15:27:25.361Z,57.24
2023-05-05T15:32:27.555Z,57.15
2023-05-05T15:37:29.744Z,57.40
2023-05-05T15:42:34.739Z,57.13
2023-05-05T15:47:36.913Z,57.17
2023-05-05T15:52:39.158Z,57.09
2023-05-05T15:57:41.650Z,57.18
2023-05-05T16:02:43.961Z,57.06
2023-05-05T16:07:46.224Z,56.94
2023-05-05T16:12:48.669Z,57.02
2023-05-05T16:17:51.092Z,56.95
2023-05-05T16:22:53.180Z,56.89
2023-05-05T16:27:57.668Z,56.82
2023-05-05T16:32:59.873Z,56.70
2023-05-05T16:38:02.224Z,56.73
2023-05-05T16:43:04.659Z,56.92
2023-05-05T16:48:08.930Z,56.71
2023-05-05T16:53:11.631Z,56.56
2023-05-05T16:58:13.733Z,56.67
2023-05-05T17:03:17.171Z,56.66
2023-05-05T17:08:19.219Z,56.47
2023-05-05T17:13:23.279Z,56.56
2023-05-05T17:18:26.164Z,56.46
2023-05-05T17:23:28.399Z,56.54
2023-05-05T17:28:30.443Z,56.42
2023-05-05T17:33:32.587Z,56.44
2023-05-05T17:38:34.877Z,56.29
2023-05-05T17:43:37.405Z,56.31
2023-05-05T17:48:39.527Z,56.38
2023-05-05T17:53:41.667Z,56.42
2023-05-05T17:58:43.849Z,56.25
2023-05-05T18:03:46.173Z,56.35
2023-05-05T18:08:48.405Z,56.34
2023-05-05T18:13:50.518Z,56.33
2023-05-05T18:18:52.801Z,56.29
2023-05-05T18:24:01.772Z,56.32
2023-05-05T18:29:10.135Z,56.42
2023-05-05T18:34:12.370Z,56.28
2023-05-05T18:39:15.262Z,56.28
2023-05-05T18:44:18.007Z,56.54
2023-05-05T18:49:20.112Z,56.30
2023-05-05T18:54:22.375Z,56.24
2023-05-05T18:59:24.418Z,56.36
2023-05-05T19:04:31.257Z,56.41
2023-05-05T19:09:34.146Z,56.62
2023-05-05T19:14:36.472Z,56.15
2023-05-05T19:19:38.490Z,56.36
2023-05-05T19:24:40.621Z,56.23
2023-05-05T19:29:42.664Z,56.59
2023-05-05T19:34:45.008Z,56.36
2023-05-05T19:39:47.610Z,56.32
2023-05-05T19:44:50.198Z,56.46
2023-05-05T19:49:52.308Z,56.58
2023-05-05T19:54:54.584Z,56.89
2023-05-05T19:59:56.740Z,56.74
2023-05-05T20:04:58.819Z,56.64
2023-05-05T20:10:01.159Z,56.49
2023-05-05T20:15:03.405Z,56.77
2023-05-05T20:20:06.258Z,56.65
2023-05-05T20:25:08.738Z,56.50
2023-05-05T20:30:12.388Z,56.74
2023-05-05T20:35:14.554Z,56.82
2023-05-05T20:40:16.648Z,56.67
2023-05-05T20:45:18.856Z,56.82
2023-05-05T20:50:21.209Z,56.83
2023-05-05T20:55:24.012Z,56.72
2023-05-05T21:00:26.529Z,56.85
2023-05-05T21:05:29.452Z,56.83
2023-05-05T21:10:33.258Z,56.76
2023-05-05T21:15:38.453Z,56.74
2023-05-05T21:20:40.873Z,56.73
2023-05-05T21:25:43.068Z,56.62
2023-05-05T21:30:46.649Z,56.75
2023-05-05T21:35:52.794Z,56.65
2023-05-05T21:40:58.752Z,56.54
2023-05-05T21:46:02.846Z,56.43
2023-05-05T21:51:05.346Z,56.60
2023-05-05T21:56:08.712Z,56.87
2023-05-05T22:01:10.888Z,56.62
2023-05-05T22:06:16.539Z,56.53
2023-05-05T22:11:19.659Z,56.59
2023-05-05T22:16:21.877Z,56.76
2023-05-05T22:21:24.081Z,56.48
2023-05-05T22:26:26.422Z,56.79
2023-05-05T22:31:29.539Z,56.97
2023-05-05T22:36:31.740Z,56.77
2023-05-05T22:41:33.830Z,56.80
2023-05-05T22:46:35.933Z,56.73
2023-05-05T22:51:38.033Z,56.87
2023-05-05T22:56:40.491Z,57.03
2023-05-05T23:01:42.574Z,57.09
2023-05-05T23:06:45.107Z,56.93
2023-05-05T23:11:47.183Z,56.96
2023-05-05T23:16:49.446Z,57.29
2023-05-05T23:21:53.583Z,57.27
2023-05-05T23:26:58.466Z,57.19
2023-05-05T23:32:00.533Z,56.98
2023-05-05T23:37:04.614Z,56.85
2023-05-05T23:42:08.157Z,56.83
2023-05-05T23:47:10.607Z,56.86
2023-05-05T23:52:13.325Z,56.92
2023-05-05T23:57:16.292Z,56.75
